Portada
METAR-TAF:

METAR-TAF

Aeroports :

Brno, República Txeca

latitud: 49-09N, longitud: 016-42E, altitud: 241 m

Observació

L'informe es va fer fa 37 minuts, a les 01:30 UTC
Vent 3 kt del Nord-Oest
Temperatura 16°C
Humitat 72%
Pressió 1018 hPa
Visibilitat 10 km o més
sense núvols per sota de 1500 mi sense presència de cumulonimbus.

METAR: LKTB 160130Z 32003KT CAVOK 16/11 Q1018 NOSIG

Hora: 04:07 (02:07 UTC)

Pronòstic

L'informe es va fer fa 3 hores i 7 minuts, a les 23:00 UTC
Pronòstic vàlid del 16 a les 00 UTC al 17 a les 06 UTC
Vent 6 kt del Nord-Est
Visibilitat 10 km o més
sense núvols per sota de 1500 mi sense presència de cumulonimbus.
Temporalment
l' 16 a les 00 UTC al 16 a les 06 UTC
Vent 2 kt amb direcció variable

TAF: LKTB 152300Z 1600/1706 05006KT CAVOK TEMPO 1600/1606 VRB02KT

Observacions i pronòstics meteorològics de més de 4000 aeroports (METAR i TAF).

Les estacions disponibles són els punts grocs i vermells al mapa.

Posi el ratolí al punt desitjat per veure el nom de l'estació.

Feu clic per veure les observacions i els pronòstics meteorològics.

Per canviar el mapa: feu clic els botons verds amb una creu de color negre per apropar; al botó verd amb un guió per allunyar la imatge; o en les fletxes verdes per a mapes adjacents.


METAR-TAF: